sensor_id;sensor_type;location;lat;lon;timestamp;P1;durP1;ratioP1;P2;durP2;ratioP2
19569;SDS011;9931;51.458;7.256;2024-02-23T00:00:20;83.53;;;27.10;;
19569;SDS011;9931;51.458;7.256;2024-02-23T00:02:45;41.60;;;20.50;;
19569;SDS011;9931;51.458;7.256;2024-02-23T00:05:10;46.10;;;22.08;;
19569;SDS011;9931;51.458;7.256;2024-02-23T00:07:36;77.22;;;28.38;;
19569;SDS011;9931;51.458;7.256;2024-02-23T00:10:01;81.13;;;30.20;;
19569;SDS011;9931;51.458;7.256;2024-02-23T00:12:26;61.87;;;30.00;;
19569;SDS011;9931;51.458;7.256;2024-02-23T00:14:51;73.22;;;31.92;;
19569;SDS011;9931;51.458;7.256;2024-02-23T00:17:16;81.57;;;31.57;;
19569;SDS011;9931;51.458;7.256;2024-02-23T00:19:41;39.42;;;28.20;;
19569;SDS011;9931;51.458;7.256;2024-02-23T00:22:07;40.17;;;24.02;;
19569;SDS011;9931;51.458;7.256;2024-02-23T00:24:32;41.10;;;24.30;;
19569;SDS011;9931;51.458;7.256;2024-02-23T00:26:57;45.23;;;25.97;;
19569;SDS011;9931;51.458;7.256;2024-02-23T00:29:22;39.60;;;29.48;;
19569;SDS011;9931;51.458;7.256;2024-02-23T00:31:47;32.30;;;29.30;;
19569;SDS011;9931;51.458;7.256;2024-02-23T00:34:13;43.33;;;27.85;;
19569;SDS011;9931;51.458;7.256;2024-02-23T00:36:39;48.72;;;28.17;;
19569;SDS011;9931;51.458;7.256;2024-02-23T00:39:04;36.92;;;31.02;;
19569;SDS011;9931;51.458;7.256;2024-02-23T00:41:29;49.40;;;32.65;;
19569;SDS011;9931;51.458;7.256;2024-02-23T00:43:55;43.13;;;26.20;;
19569;SDS011;9931;51.458;7.256;2024-02-23T00:46:20;68.80;;;28.50;;
19569;SDS011;9931;51.458;7.256;2024-02-23T00:48:45;65.50;;;28.40;;
19569;SDS011;9931;51.458;7.256;2024-02-23T00:51:11;37.38;;;24.10;;
19569;SDS011;9931;51.458;7.256;2024-02-23T00:53:36;33.70;;;26.37;;
19569;SDS011;9931;51.458;7.256;2024-02-23T00:56:01;36.17;;;22.02;;
19569;SDS011;9931;51.458;7.256;2024-02-23T00:58:26;40.00;;;28.13;;
19569;SDS011;9931;51.458;7.256;2024-02-23T01:00:52;42.07;;;28.43;;
19569;SDS011;9931;51.458;7.256;2024-02-23T01:03:17;73.30;;;25.58;;
19569;SDS011;9931;51.458;7.256;2024-02-23T01:05:42;31.75;;;28.92;;
19569;SDS011;9931;51.458;7.256;2024-02-23T01:08:07;47.53;;;24.47;;
19569;SDS011;9931;51.458;7.256;2024-02-23T01:10:36;38.42;;;26.58;;
19569;SDS011;9931;51.458;7.256;2024-02-23T01:13:01;44.42;;;25.27;;
19569;SDS011;9931;51.458;7.256;2024-02-23T01:15:26;39.47;;;23.27;;
19569;SDS011;9931;51.458;7.256;2024-02-23T01:17:51;38.08;;;23.48;;
19569;SDS011;9931;51.458;7.256;2024-02-23T01:20:16;37.80;;;23.97;;
19569;SDS011;9931;51.458;7.256;2024-02-23T01:22:42;55.70;;;24.80;;
19569;SDS011;9931;51.458;7.256;2024-02-23T01:25:07;49.58;;;32.55;;
19569;SDS011;9931;51.458;7.256;2024-02-23T01:27:32;41.95;;;24.10;;
19569;SDS011;9931;51.458;7.256;2024-02-23T01:29:57;42.23;;;26.00;;
19569;SDS011;9931;51.458;7.256;2024-02-23T01:32:23;63.70;;;27.27;;
19569;SDS011;9931;51.458;7.256;2024-02-23T01:34:48;45.93;;;23.73;;
19569;SDS011;9931;51.458;7.256;2024-02-23T01:37:13;74.27;;;25.63;;
19569;SDS011;9931;51.458;7.256;2024-02-23T01:39:38;41.10;;;25.53;;
19569;SDS011;9931;51.458;7.256;2024-02-23T01:42:04;44.53;;;26.75;;
19569;SDS011;9931;51.458;7.256;2024-02-23T01:44:29;47.45;;;25.50;;
19569;SDS011;9931;51.458;7.256;2024-02-23T01:46:54;36.60;;;16.30;;
19569;SDS011;9931;51.458;7.256;2024-02-23T01:49:20;39.35;;;22.48;;
19569;SDS011;9931;51.458;7.256;2024-02-23T01:51:45;38.83;;;21.80;;
19569;SDS011;9931;51.458;7.256;2024-02-23T01:54:10;22.23;;;18.88;;
19569;SDS011;9931;51.458;7.256;2024-02-23T01:56:36;44.30;;;22.55;;
19569;SDS011;9931;51.458;7.256;2024-02-23T01:59:02;36.83;;;18.25;;
19569;SDS011;9931;51.458;7.256;2024-02-23T02:01:28;58.25;;;22.52;;
19569;SDS011;9931;51.458;7.256;2024-02-23T02:03:53;38.90;;;20.17;;
19569;SDS011;9931;51.458;7.256;2024-02-23T02:06:18;71.15;;;22.30;;
19569;SDS011;9931;51.458;7.256;2024-02-23T02:08:43;40.80;;;26.58;;
19569;SDS011;9931;51.458;7.256;2024-02-23T02:11:08;72.80;;;28.65;;
19569;SDS011;9931;51.458;7.256;2024-02-23T02:13:34;36.88;;;19.80;;
19569;SDS011;9931;51.458;7.256;2024-02-23T02:16:00;30.20;;;15.98;;
19569;SDS011;9931;51.458;7.256;2024-02-23T02:18:25;50.95;;;18.20;;
19569;SDS011;9931;51.458;7.256;2024-02-23T02:20:51;21.13;;;15.68;;
19569;SDS011;9931;51.458;7.256;2024-02-23T02:23:19;33.03;;;16.25;;
19569;SDS011;9931;51.458;7.256;2024-02-23T02:25:44;28.08;;;16.25;;
19569;SDS011;9931;51.458;7.256;2024-02-23T02:28:10;37.40;;;17.38;;
19569;SDS011;9931;51.458;7.256;2024-02-23T02:30:35;30.33;;;16.23;;
19569;SDS011;9931;51.458;7.256;2024-02-23T02:33:00;62.33;;;18.33;;
19569;SDS011;9931;51.458;7.256;2024-02-23T02:35:25;42.15;;;17.73;;
19569;SDS011;9931;51.458;7.256;2024-02-23T02:37:50;40.30;;;17.63;;
19569;SDS011;9931;51.458;7.256;2024-02-23T02:40:15;22.45;;;17.23;;
19569;SDS011;9931;51.458;7.256;2024-02-23T02:42:41;45.58;;;17.02;;
19569;SDS011;9931;51.458;7.256;2024-02-23T02:45:06;56.03;;;18.60;;
19569;SDS011;9931;51.458;7.256;2024-02-23T02:47:31;26.80;;;17.10;;
19569;SDS011;9931;51.458;7.256;2024-02-23T02:49:56;31.37;;;16.87;;
19569;SDS011;9931;51.458;7.256;2024-02-23T02:52:22;28.33;;;16.65;;
19569;SDS011;9931;51.458;7.256;2024-02-23T02:54:48;36.70;;;16.90;;
19569;SDS011;9931;51.458;7.256;2024-02-23T02:57:14;87.38;;;19.13;;
19569;SDS011;9931;51.458;7.256;2024-02-23T02:59:39;37.72;;;17.33;;
19569;SDS011;9931;51.458;7.256;2024-02-23T03:02:04;36.10;;;16.07;;
19569;SDS011;9931;51.458;7.256;2024-02-23T03:04:29;30.55;;;14.88;;
19569;SDS011;9931;51.458;7.256;2024-02-23T03:06:54;36.03;;;15.65;;
19569;SDS011;9931;51.458;7.256;2024-02-23T03:09:21;39.90;;;15.53;;
19569;SDS011;9931;51.458;7.256;2024-02-23T03:11:46;29.85;;;15.00;;
19569;SDS011;9931;51.458;7.256;2024-02-23T03:14:11;64.53;;;17.07;;
19569;SDS011;9931;51.458;7.256;2024-02-23T03:16:37;28.77;;;14.68;;
19569;SDS011;9931;51.458;7.256;2024-02-23T03:19:03;15.27;;;13.80;;
19569;SDS011;9931;51.458;7.256;2024-02-23T03:21:28;28.73;;;14.85;;
19569;SDS011;9931;51.458;7.256;2024-02-23T03:23:53;29.30;;;14.27;;
19569;SDS011;9931;51.458;7.256;2024-02-23T03:26:18;29.20;;;14.83;;
19569;SDS011;9931;51.458;7.256;2024-02-23T03:28:44;24.70;;;14.63;;
19569;SDS011;9931;51.458;7.256;2024-02-23T03:31:09;45.03;;;15.25;;
19569;SDS011;9931;51.458;7.256;2024-02-23T03:33:34;26.98;;;14.27;;
19569;SDS011;9931;51.458;7.256;2024-02-23T03:35:59;26.03;;;12.97;;
19569;SDS011;9931;51.458;7.256;2024-02-23T03:38:24;36.58;;;14.13;;
19569;SDS011;9931;51.458;7.256;2024-02-23T03:40:50;31.30;;;15.00;;
19569;SDS011;9931;51.458;7.256;2024-02-23T03:43:15;56.43;;;15.50;;
19569;SDS011;9931;51.458;7.256;2024-02-23T03:45:40;83.38;;;18.30;;
19569;SDS011;9931;51.458;7.256;2024-02-23T03:48:05;31.67;;;14.33;;
19569;SDS011;9931;51.458;7.256;2024-02-23T03:50:30;33.80;;;14.70;;
19569;SDS011;9931;51.458;7.256;2024-02-23T03:52:56;23.88;;;13.45;;
19569;SDS011;9931;51.458;7.256;2024-02-23T03:55:21;50.65;;;16.48;;
19569;SDS011;9931;51.458;7.256;2024-02-23T03:57:47;25.98;;;15.25;;
19569;SDS011;9931;51.458;7.256;2024-02-23T04:00:12;25.00;;;14.45;;
19569;SDS011;9931;51.458;7.256;2024-02-23T04:02:38;47.53;;;15.05;;
19569;SDS011;9931;51.458;7.256;2024-02-23T04:05:03;28.40;;;14.05;;
19569;SDS011;9931;51.458;7.256;2024-02-23T04:07:28;28.70;;;13.73;;
19569;SDS011;9931;51.458;7.256;2024-02-23T04:09:54;21.53;;;12.97;;
19569;SDS011;9931;51.458;7.256;2024-02-23T04:12:20;15.35;;;13.65;;
19569;SDS011;9931;51.458;7.256;2024-02-23T04:14:45;28.08;;;14.90;;
19569;SDS011;9931;51.458;7.256;2024-02-23T04:17:10;42.40;;;14.68;;
19569;SDS011;9931;51.458;7.256;2024-02-23T04:19:37;28.67;;;14.48;;
19569;SDS011;9931;51.458;7.256;2024-02-23T04:22:02;28.67;;;15.52;;
19569;SDS011;9931;51.458;7.256;2024-02-23T04:24:27;29.70;;;13.45;;
19569;SDS011;9931;51.458;7.256;2024-02-23T04:26:52;29.10;;;12.98;;
19569;SDS011;9931;51.458;7.256;2024-02-23T04:29:18;23.05;;;13.80;;
19569;SDS011;9931;51.458;7.256;2024-02-23T04:31:43;23.97;;;13.60;;
19569;SDS011;9931;51.458;7.256;2024-02-23T04:34:09;19.83;;;14.60;;
19569;SDS011;9931;51.458;7.256;2024-02-23T04:36:34;18.30;;;13.03;;
19569;SDS011;9931;51.458;7.256;2024-02-23T04:38:59;19.83;;;13.83;;
19569;SDS011;9931;51.458;7.256;2024-02-23T04:41:24;151.20;;;20.97;;
19569;SDS011;9931;51.458;7.256;2024-02-23T04:43:49;35.93;;;10.40;;
19569;SDS011;9931;51.458;7.256;2024-02-23T04:46:15;22.65;;;9.82;;
19569;SDS011;9931;51.458;7.256;2024-02-23T04:48:40;76.03;;;13.52;;
19569;SDS011;9931;51.458;7.256;2024-02-23T04:51:06;21.70;;;10.40;;
19569;SDS011;9931;51.458;7.256;2024-02-23T04:53:37;26.13;;;10.80;;
19569;SDS011;9931;51.458;7.256;2024-02-23T04:56:03;26.23;;;11.25;;
19569;SDS011;9931;51.458;7.256;2024-02-23T04:58:28;30.25;;;12.48;;
19569;SDS011;9931;51.458;7.256;2024-02-23T05:00:53;21.65;;;11.20;;
19569;SDS011;9931;51.458;7.256;2024-02-23T05:03:20;17.45;;;11.82;;
19569;SDS011;9931;51.458;7.256;2024-02-23T05:05:45;13.57;;;10.20;;
19569;SDS011;9931;51.458;7.256;2024-02-23T05:08:10;13.90;;;9.70;;
19569;SDS011;9931;51.458;7.256;2024-02-23T05:10:35;23.80;;;10.35;;
19569;SDS011;9931;51.458;7.256;2024-02-23T05:13:01;24.43;;;12.20;;
19569;SDS011;9931;51.458;7.256;2024-02-23T05:15:26;29.27;;;11.10;;
19569;SDS011;9931;51.458;7.256;2024-02-23T05:17:51;32.63;;;10.38;;
19569;SDS011;9931;51.458;7.256;2024-02-23T05:20:16;26.30;;;11.02;;
19569;SDS011;9931;51.458;7.256;2024-02-23T05:22:42;24.13;;;10.77;;
19569;SDS011;9931;51.458;7.256;2024-02-23T05:25:07;29.07;;;10.53;;
19569;SDS011;9931;51.458;7.256;2024-02-23T05:27:32;25.90;;;11.63;;
19569;SDS011;9931;51.458;7.256;2024-02-23T05:29:58;11.50;;;10.32;;
19569;SDS011;9931;51.458;7.256;2024-02-23T05:32:23;24.20;;;10.57;;
19569;SDS011;9931;51.458;7.256;2024-02-23T05:34:48;29.65;;;11.90;;
19569;SDS011;9931;51.458;7.256;2024-02-23T05:37:16;58.40;;;14.05;;
19569;SDS011;9931;51.458;7.256;2024-02-23T05:39:41;23.85;;;11.00;;
19569;SDS011;9931;51.458;7.256;2024-02-23T05:42:06;33.97;;;10.97;;
19569;SDS011;9931;51.458;7.256;2024-02-23T05:44:31;24.88;;;10.52;;
19569;SDS011;9931;51.458;7.256;2024-02-23T05:46:57;35.75;;;12.13;;
19569;SDS011;9931;51.458;7.256;2024-02-23T05:49:22;24.10;;;10.13;;
19569;SDS011;9931;51.458;7.256;2024-02-23T05:51:47;18.97;;;9.57;;
19569;SDS011;9931;51.458;7.256;2024-02-23T05:54:12;21.73;;;9.17;;
19569;SDS011;9931;51.458;7.256;2024-02-23T05:56:37;24.98;;;9.75;;
19569;SDS011;9931;51.458;7.256;2024-02-23T05:59:02;20.40;;;9.63;;
19569;SDS011;9931;51.458;7.256;2024-02-23T06:01:28;30.37;;;9.83;;
19569;SDS011;9931;51.458;7.256;2024-02-23T06:03:53;11.93;;;9.20;;
19569;SDS011;9931;51.458;7.256;2024-02-23T06:06:20;26.23;;;8.57;;
19569;SDS011;9931;51.458;7.256;2024-02-23T06:08:45;25.25;;;8.27;;
19569;SDS011;9931;51.458;7.256;2024-02-23T06:11:11;24.13;;;9.50;;
19569;SDS011;9931;51.458;7.256;2024-02-23T06:13:36;20.38;;;8.45;;
19569;SDS011;9931;51.458;7.256;2024-02-23T06:16:01;24.83;;;9.68;;
19569;SDS011;9931;51.458;7.256;2024-02-23T06:18:27;22.05;;;9.63;;
19569;SDS011;9931;51.458;7.256;2024-02-23T06:20:52;22.73;;;8.60;;
19569;SDS011;9931;51.458;7.256;2024-02-23T06:23:17;21.47;;;8.57;;
19569;SDS011;9931;51.458;7.256;2024-02-23T06:25:43;40.80;;;10.27;;
19569;SDS011;9931;51.458;7.256;2024-02-23T06:28:08;21.33;;;9.82;;
19569;SDS011;9931;51.458;7.256;2024-02-23T06:30:34;20.90;;;9.43;;
19569;SDS011;9931;51.458;7.256;2024-02-23T06:32:59;47.58;;;11.05;;
19569;SDS011;9931;51.458;7.256;2024-02-23T06:35:24;26.38;;;9.63;;
19569;SDS011;9931;51.458;7.256;2024-02-23T06:37:49;21.57;;;8.77;;
19569;SDS011;9931;51.458;7.256;2024-02-23T06:40:14;32.37;;;11.13;;
19569;SDS011;9931;51.458;7.256;2024-02-23T06:42:40;22.80;;;9.95;;
19569;SDS011;9931;51.458;7.256;2024-02-23T06:45:05;40.63;;;12.20;;
19569;SDS011;9931;51.458;7.256;2024-02-23T06:47:30;31.13;;;11.02;;
19569;SDS011;9931;51.458;7.256;2024-02-23T06:49:56;31.75;;;11.57;;
19569;SDS011;9931;51.458;7.256;2024-02-23T06:52:21;30.23;;;11.57;;
19569;SDS011;9931;51.458;7.256;2024-02-23T06:54:46;29.98;;;11.32;;
19569;SDS011;9931;51.458;7.256;2024-02-23T06:57:11;43.30;;;11.67;;
19569;SDS011;9931;51.458;7.256;2024-02-23T06:59:36;24.95;;;11.13;;
19569;SDS011;9931;51.458;7.256;2024-02-23T07:02:01;15.57;;;11.73;;
19569;SDS011;9931;51.458;7.256;2024-02-23T07:04:27;20.38;;;11.07;;
19569;SDS011;9931;51.458;7.256;2024-02-23T07:06:54;26.00;;;11.15;;
19569;SDS011;9931;51.458;7.256;2024-02-23T07:09:19;16.25;;;9.82;;
19569;SDS011;9931;51.458;7.256;2024-02-23T07:11:44;16.57;;;10.30;;
19569;SDS011;9931;51.458;7.256;2024-02-23T07:14:10;44.08;;;12.48;;
19569;SDS011;9931;51.458;7.256;2024-02-23T07:16:38;26.40;;;13.30;;
19569;SDS011;9931;51.458;7.256;2024-02-23T07:19:04;30.13;;;14.48;;
19569;SDS011;9931;51.458;7.256;2024-02-23T07:21:29;27.40;;;14.67;;
19569;SDS011;9931;51.458;7.256;2024-02-23T07:23:54;31.08;;;16.55;;
19569;SDS011;9931;51.458;7.256;2024-02-23T07:26:19;29.30;;;17.58;;
19569;SDS011;9931;51.458;7.256;2024-02-23T07:28:47;40.00;;;18.77;;
19569;SDS011;9931;51.458;7.256;2024-02-23T07:31:12;18.27;;;16.63;;
19569;SDS011;9931;51.458;7.256;2024-02-23T07:33:37;33.53;;;18.17;;
19569;SDS011;9931;51.458;7.256;2024-02-23T07:36:03;31.00;;;18.80;;
19569;SDS011;9931;51.458;7.256;2024-02-23T07:38:28;32.13;;;18.92;;
19569;SDS011;9931;51.458;7.256;2024-02-23T07:40:53;26.42;;;17.63;;
19569;SDS011;9931;51.458;7.256;2024-02-23T07:43:18;21.27;;;16.88;;
19569;SDS011;9931;51.458;7.256;2024-02-23T07:45:44;26.57;;;15.67;;
19569;SDS011;9931;51.458;7.256;2024-02-23T07:48:09;42.25;;;15.15;;
19569;SDS011;9931;51.458;7.256;2024-02-23T07:50:34;56.57;;;16.17;;
19569;SDS011;9931;51.458;7.256;2024-02-23T07:52:59;24.77;;;15.00;;
19569;SDS011;9931;51.458;7.256;2024-02-23T07:55:24;27.73;;;15.60;;
19569;SDS011;9931;51.458;7.256;2024-02-23T07:57:50;32.20;;;16.50;;
19569;SDS011;9931;51.458;7.256;2024-02-23T08:00:15;30.90;;;16.07;;
19569;SDS011;9931;51.458;7.256;2024-02-23T08:02:40;29.50;;;17.90;;
19569;SDS011;9931;51.458;7.256;2024-02-23T08:05:06;29.92;;;17.42;;
19569;SDS011;9931;51.458;7.256;2024-02-23T08:07:31;19.17;;;17.30;;
19569;SDS011;9931;51.458;7.256;2024-02-23T08:09:56;31.00;;;18.30;;
19569;SDS011;9931;51.458;7.256;2024-02-23T08:12:22;31.88;;;19.65;;
19569;SDS011;9931;51.458;7.256;2024-02-23T08:14:47;33.30;;;18.75;;
19569;SDS011;9931;51.458;7.256;2024-02-23T08:17:14;67.22;;;22.08;;
19569;SDS011;9931;51.458;7.256;2024-02-23T08:19:39;48.97;;;21.33;;
19569;SDS011;9931;51.458;7.256;2024-02-23T08:22:04;39.53;;;19.77;;
19569;SDS011;9931;51.458;7.256;2024-02-23T08:24:30;38.13;;;22.70;;
19569;SDS011;9931;51.458;7.256;2024-02-23T08:26:55;43.37;;;23.87;;
19569;SDS011;9931;51.458;7.256;2024-02-23T08:29:20;37.77;;;23.27;;
19569;SDS011;9931;51.458;7.256;2024-02-23T08:31:45;40.58;;;22.88;;
19569;SDS011;9931;51.458;7.256;2024-02-23T08:34:11;34.55;;;22.88;;
19569;SDS011;9931;51.458;7.256;2024-02-23T08:36:36;32.13;;;20.80;;
19569;SDS011;9931;51.458;7.256;2024-02-23T08:39:01;27.80;;;21.73;;
19569;SDS011;9931;51.458;7.256;2024-02-23T08:41:27;47.17;;;23.15;;
19569;SDS011;9931;51.458;7.256;2024-02-23T08:43:53;41.00;;;21.73;;
19569;SDS011;9931;51.458;7.256;2024-02-23T08:46:19;34.13;;;22.65;;
19569;SDS011;9931;51.458;7.256;2024-02-23T08:48:44;24.33;;;22.10;;
19569;SDS011;9931;51.458;7.256;2024-02-23T08:51:10;38.85;;;22.35;;
19569;SDS011;9931;51.458;7.256;2024-02-23T08:53:35;60.47;;;23.55;;
19569;SDS011;9931;51.458;7.256;2024-02-23T08:56:00;52.27;;;24.70;;
19569;SDS011;9931;51.458;7.256;2024-02-23T08:58:25;57.53;;;23.10;;
19569;SDS011;9931;51.458;7.256;2024-02-23T09:00:50;56.00;;;22.08;;
19569;SDS011;9931;51.458;7.256;2024-02-23T09:03:16;45.83;;;20.73;;
19569;SDS011;9931;51.458;7.256;2024-02-23T09:05:41;58.05;;;22.70;;
19569;SDS011;9931;51.458;7.256;2024-02-23T09:08:06;41.80;;;21.27;;
19569;SDS011;9931;51.458;7.256;2024-02-23T09:10:31;52.90;;;20.55;;
19569;SDS011;9931;51.458;7.256;2024-02-23T09:12:56;57.17;;;21.35;;
19569;SDS011;9931;51.458;7.256;2024-02-23T09:15:22;23.15;;;18.67;;
19569;SDS011;9931;51.458;7.256;2024-02-23T09:17:47;25.47;;;17.93;;
19569;SDS011;9931;51.458;7.256;2024-02-23T09:20:12;33.93;;;18.90;;
19569;SDS011;9931;51.458;7.256;2024-02-23T09:22:37;33.90;;;19.42;;
19569;SDS011;9931;51.458;7.256;2024-02-23T09:25:03;37.73;;;20.27;;
19569;SDS011;9931;51.458;7.256;2024-02-23T09:27:30;34.10;;;20.67;;
19569;SDS011;9931;51.458;7.256;2024-02-23T09:29:55;31.85;;;19.13;;
19569;SDS011;9931;51.458;7.256;2024-02-23T09:32:20;33.10;;;20.40;;
19569;SDS011;9931;51.458;7.256;2024-02-23T09:34:45;39.17;;;20.23;;
19569;SDS011;9931;51.458;7.256;2024-02-23T09:37:11;36.78;;;19.50;;
19569;SDS011;9931;51.458;7.256;2024-02-23T09:39:36;37.88;;;19.02;;
19569;SDS011;9931;51.458;7.256;2024-02-23T09:42:01;20.23;;;18.20;;
19569;SDS011;9931;51.458;7.256;2024-02-23T09:44:29;21.15;;;19.00;;
19569;SDS011;9931;51.458;7.256;2024-02-23T09:46:58;37.83;;;20.27;;
19569;SDS011;9931;51.458;7.256;2024-02-23T09:49:23;39.50;;;21.75;;
19569;SDS011;9931;51.458;7.256;2024-02-23T09:51:49;33.17;;;21.63;;
19569;SDS011;9931;51.458;7.256;2024-02-23T09:54:14;39.45;;;22.23;;
19569;SDS011;9931;51.458;7.256;2024-02-23T09:56:39;41.20;;;22.10;;
19569;SDS011;9931;51.458;7.256;2024-02-23T09:59:04;34.03;;;21.88;;
19569;SDS011;9931;51.458;7.256;2024-02-23T10:01:32;43.17;;;23.48;;
19569;SDS011;9931;51.458;7.256;2024-02-23T10:03:58;79.43;;;25.17;;
19569;SDS011;9931;51.458;7.256;2024-02-23T10:06:27;44.17;;;24.05;;
19569;SDS011;9931;51.458;7.256;2024-02-23T10:08:52;40.58;;;24.88;;
19569;SDS011;9931;51.458;7.256;2024-02-23T10:11:20;47.30;;;25.25;;
19569;SDS011;9931;51.458;7.256;2024-02-23T10:13:46;48.33;;;25.33;;
19569;SDS011;9931;51.458;7.256;2024-02-23T10:16:12;54.00;;;25.55;;
19569;SDS011;9931;51.458;7.256;2024-02-23T10:18:40;65.28;;;26.20;;
19569;SDS011;9931;51.458;7.256;2024-02-23T10:21:05;49.45;;;24.95;;
19569;SDS011;9931;51.458;7.256;2024-02-23T10:23:30;45.08;;;23.38;;
19569;SDS011;9931;51.458;7.256;2024-02-23T10:25:55;37.67;;;23.52;;
19569;SDS011;9931;51.458;7.256;2024-02-23T10:28:21;36.08;;;23.70;;
19569;SDS011;9931;51.458;7.256;2024-02-23T10:30:47;44.78;;;24.10;;
19569;SDS011;9931;51.458;7.256;2024-02-23T10:33:12;42.50;;;23.65;;
19569;SDS011;9931;51.458;7.256;2024-02-23T10:35:39;41.30;;;23.52;;
19569;SDS011;9931;51.458;7.256;2024-02-23T10:38:05;40.42;;;24.27;;
19569;SDS011;9931;51.458;7.256;2024-02-23T10:40:34;41.45;;;24.60;;
19569;SDS011;9931;51.458;7.256;2024-02-23T10:43:02;39.97;;;23.85;;
19569;SDS011;9931;51.458;7.256;2024-02-23T10:45:28;39.05;;;24.42;;
19569;SDS011;9931;51.458;7.256;2024-02-23T10:47:53;39.75;;;23.80;;
19569;SDS011;9931;51.458;7.256;2024-02-23T10:50:20;32.22;;;24.05;;
19569;SDS011;9931;51.458;7.256;2024-02-23T10:52:46;57.38;;;24.85;;
19569;SDS011;9931;51.458;7.256;2024-02-23T10:55:12;35.85;;;24.55;;
19569;SDS011;9931;51.458;7.256;2024-02-23T10:57:37;51.75;;;26.48;;
19569;SDS011;9931;51.458;7.256;2024-02-23T11:00:04;39.15;;;26.13;;
19569;SDS011;9931;51.458;7.256;2024-02-23T11:02:34;43.60;;;26.13;;
19569;SDS011;9931;51.458;7.256;2024-02-23T11:05:01;55.70;;;27.90;;
19569;SDS011;9931;51.458;7.256;2024-02-23T11:07:29;63.17;;;28.55;;
19569;SDS011;9931;51.458;7.256;2024-02-23T11:09:55;61.20;;;28.50;;
19569;SDS011;9931;51.458;7.256;2024-02-23T11:12:28;50.55;;;28.58;;
19569;SDS011;9931;51.458;7.256;2024-02-23T11:14:57;61.85;;;31.48;;
19569;SDS011;9931;51.458;7.256;2024-02-23T11:17:26;94.07;;;36.38;;
19569;SDS011;9931;51.458;7.256;2024-02-23T11:19:51;58.05;;;34.33;;
19569;SDS011;9931;51.458;7.256;2024-02-23T11:22:23;58.55;;;33.08;;
19569;SDS011;9931;51.458;7.256;2024-02-23T11:24:49;48.13;;;31.23;;
19569;SDS011;9931;51.458;7.256;2024-02-23T11:27:14;54.92;;;30.38;;
19569;SDS011;9931;51.458;7.256;2024-02-23T11:29:42;36.42;;;29.08;;
19569;SDS011;9931;51.458;7.256;2024-02-23T11:32:17;51.85;;;28.95;;
19569;SDS011;9931;51.458;7.256;2024-02-23T11:34:55;50.63;;;28.23;;
19569;SDS011;9931;51.458;7.256;2024-02-23T11:37:21;117.15;;;31.83;;
19569;SDS011;9931;51.458;7.256;2024-02-23T11:39:46;43.72;;;27.73;;
19569;SDS011;9931;51.458;7.256;2024-02-23T11:42:12;52.05;;;27.88;;
19569;SDS011;9931;51.458;7.256;2024-02-23T11:44:37;49.50;;;29.55;;
19569;SDS011;9931;51.458;7.256;2024-02-23T11:47:02;55.73;;;28.77;;
19569;SDS011;9931;51.458;7.256;2024-02-23T11:49:30;69.53;;;29.77;;
19569;SDS011;9931;51.458;7.256;2024-02-23T11:51:56;50.50;;;27.55;;
19569;SDS011;9931;51.458;7.256;2024-02-23T11:54:22;46.05;;;28.10;;
19569;SDS011;9931;51.458;7.256;2024-02-23T11:56:48;45.72;;;27.80;;
19569;SDS011;9931;51.458;7.256;2024-02-23T11:59:14;37.08;;;27.23;;
19569;SDS011;9931;51.458;7.256;2024-02-23T12:01:39;49.33;;;26.85;;
19569;SDS011;9931;51.458;7.256;2024-02-23T12:04:05;45.13;;;26.33;;
19569;SDS011;9931;51.458;7.256;2024-02-23T12:06:30;43.13;;;25.17;;
19569;SDS011;9931;51.458;7.256;2024-02-23T12:08:57;50.13;;;26.30;;
19569;SDS011;9931;51.458;7.256;2024-02-23T12:11:23;46.78;;;26.80;;
19569;SDS011;9931;51.458;7.256;2024-02-23T12:13:48;45.55;;;26.75;;
19569;SDS011;9931;51.458;7.256;2024-02-23T12:16:14;45.88;;;27.05;;
19569;SDS011;9931;51.458;7.256;2024-02-23T12:18:39;45.90;;;27.37;;
19569;SDS011;9931;51.458;7.256;2024-02-23T12:21:05;47.70;;;26.73;;
19569;SDS011;9931;51.458;7.256;2024-02-23T12:24:04;42.85;;;27.33;;
19569;SDS011;9931;51.458;7.256;2024-02-23T12:26:22;28.25;;;25.42;;
19569;SDS011;9931;51.458;7.256;2024-02-23T12:28:47;42.73;;;27.47;;
19569;SDS011;9931;51.458;7.256;2024-02-23T12:31:13;48.85;;;27.17;;
19569;SDS011;9931;51.458;7.256;2024-02-23T12:33:38;33.38;;;26.63;;
19569;SDS011;9931;51.458;7.256;2024-02-23T12:36:07;63.72;;;30.63;;
19569;SDS011;9931;51.458;7.256;2024-02-23T12:38:33;50.53;;;28.40;;
19569;SDS011;9931;51.458;7.256;2024-02-23T12:40:59;47.58;;;27.60;;
19569;SDS011;9931;51.458;7.256;2024-02-23T12:43:24;47.42;;;27.05;;
19569;SDS011;9931;51.458;7.256;2024-02-23T12:45:55;41.08;;;26.90;;
19569;SDS011;9931;51.458;7.256;2024-02-23T12:48:21;39.22;;;26.80;;
19569;SDS011;9931;51.458;7.256;2024-02-23T12:50:47;48.47;;;27.58;;
19569;SDS011;9931;51.458;7.256;2024-02-23T12:56:17;71.22;;;30.15;;
19569;SDS011;9931;51.458;7.256;2024-02-23T12:58:43;46.25;;;28.40;;
19569;SDS011;9931;51.458;7.256;2024-02-23T13:01:09;44.00;;;28.15;;
19569;SDS011;9931;51.458;7.256;2024-02-23T13:03:34;60.22;;;29.50;;
19569;SDS011;9931;51.458;7.256;2024-02-23T13:06:00;53.72;;;29.38;;
19569;SDS011;9931;51.458;7.256;2024-02-23T13:08:26;54.42;;;29.88;;
19569;SDS011;9931;51.458;7.256;2024-02-23T13:10:51;49.95;;;29.33;;
19569;SDS011;9931;51.458;7.256;2024-02-23T13:13:18;45.17;;;29.27;;
19569;SDS011;9931;51.458;7.256;2024-02-23T13:15:44;61.17;;;30.08;;
19569;SDS011;9931;51.458;7.256;2024-02-23T13:18:09;53.60;;;29.48;;
19569;SDS011;9931;51.458;7.256;2024-02-23T13:20:35;50.03;;;28.95;;
19569;SDS011;9931;51.458;7.256;2024-02-23T13:23:00;55.33;;;29.02;;
19569;SDS011;9931;51.458;7.256;2024-02-23T13:25:25;53.10;;;28.30;;
19569;SDS011;9931;51.458;7.256;2024-02-23T13:27:51;57.10;;;28.55;;
19569;SDS011;9931;51.458;7.256;2024-02-23T13:30:16;45.73;;;27.07;;
19569;SDS011;9931;51.458;7.256;2024-02-23T13:32:41;44.50;;;27.27;;
19569;SDS011;9931;51.458;7.256;2024-02-23T13:35:06;65.38;;;28.60;;
19569;SDS011;9931;51.458;7.256;2024-02-23T13:37:31;45.22;;;26.80;;
19569;SDS011;9931;51.458;7.256;2024-02-23T13:39:57;79.55;;;29.85;;
19569;SDS011;9931;51.458;7.256;2024-02-23T13:42:22;58.37;;;28.53;;
19569;SDS011;9931;51.458;7.256;2024-02-23T13:44:47;32.17;;;27.08;;
19569;SDS011;9931;51.458;7.256;2024-02-23T13:47:12;51.70;;;28.02;;
19569;SDS011;9931;51.458;7.256;2024-02-23T13:49:38;47.70;;;27.20;;
19569;SDS011;9931;51.458;7.256;2024-02-23T13:52:03;93.97;;;29.57;;
19569;SDS011;9931;51.458;7.256;2024-02-23T13:54:28;68.05;;;28.45;;
19569;SDS011;9931;51.458;7.256;2024-02-23T13:56:53;41.60;;;26.30;;
19569;SDS011;9931;51.458;7.256;2024-02-23T13:59:19;53.80;;;27.63;;
19569;SDS011;9931;51.458;7.256;2024-02-23T14:01:44;47.17;;;29.20;;
19569;SDS011;9931;51.458;7.256;2024-02-23T14:04:10;38.53;;;28.05;;
19569;SDS011;9931;51.458;7.256;2024-02-23T14:06:35;44.20;;;28.13;;
19569;SDS011;9931;51.458;7.256;2024-02-23T14:09:00;33.43;;;28.37;;
19569;SDS011;9931;51.458;7.256;2024-02-23T14:11:25;93.00;;;31.77;;
19569;SDS011;9931;51.458;7.256;2024-02-23T14:13:50;36.63;;;28.77;;
19569;SDS011;9931;51.458;7.256;2024-02-23T14:16:16;67.10;;;30.27;;
19569;SDS011;9931;51.458;7.256;2024-02-23T14:18:41;88.57;;;31.40;;
19569;SDS011;9931;51.458;7.256;2024-02-23T14:21:09;80.10;;;30.83;;
19569;SDS011;9931;51.458;7.256;2024-02-23T14:23:35;47.40;;;28.75;;
19569;SDS011;9931;51.458;7.256;2024-02-23T14:26:00;32.45;;;28.30;;
19569;SDS011;9931;51.458;7.256;2024-02-23T14:28:25;49.03;;;29.58;;